sensor_id;sensor_type;location;lat;lon;timestamp;pressure;altitude;pressure_sealevel;temperature;humidity
64616;BME280;51027;42.162;24.754;2023-03-21T00:00:32;99705.94;;;10.97;68.74
64616;BME280;51027;42.162;24.754;2023-03-21T00:02:58;99730.44;;;11.21;68.65
64616;BME280;51027;42.162;24.754;2023-03-21T00:05:24;99715.38;;;11.03;68.78
64616;BME280;51027;42.162;24.754;2023-03-21T00:07:49;99722.44;;;11.22;68.59
64616;BME280;51027;42.162;24.754;2023-03-21T00:10:16;99717.31;;;11.19;68.63
64616;BME280;51027;42.162;24.754;2023-03-21T00:12:41;99706.13;;;11.14;68.42
64616;BME280;51027;42.162;24.754;2023-03-21T00:15:09;99697.53;;;11.09;68.33
64616;BME280;51027;42.162;24.754;2023-03-21T00:17:35;99702.97;;;11.27;68.20
64616;BME280;51027;42.162;24.754;2023-03-21T00:20:04;99694.22;;;11.26;68.07
64616;BME280;51027;42.162;24.754;2023-03-21T00:22:32;99709.44;;;10.98;69.35
64616;BME280;51027;42.162;24.754;2023-03-21T00:24:58;99705.16;;;10.73;70.63
64616;BME280;51027;42.162;24.754;2023-03-21T00:27:23;99697.63;;;10.86;70.16
64616;BME280;51027;42.162;24.754;2023-03-21T00:29:49;99695.19;;;11.02;69.69
64616;BME280;51027;42.162;24.754;2023-03-21T00:32:15;99688.69;;;11.10;69.52
64616;BME280;51027;42.162;24.754;2023-03-21T00:34:42;99688.47;;;11.16;69.25
64616;BME280;51027;42.162;24.754;2023-03-21T00:37:08;99686.53;;;11.20;69.03
64616;BME280;51027;42.162;24.754;2023-03-21T00:39:34;99683.38;;;11.32;68.76
64616;BME280;51027;42.162;24.754;2023-03-21T00:42:00;99676.72;;;11.23;69.22
64616;BME280;51027;42.162;24.754;2023-03-21T00:44:26;99661.63;;;11.07;70.13
64616;BME280;51027;42.162;24.754;2023-03-21T00:46:51;99663.13;;;11.12;70.20
64616;BME280;51027;42.162;24.754;2023-03-21T00:49:17;99663.56;;;11.02;70.30
64616;BME280;51027;42.162;24.754;2023-03-21T00:51:45;99655.03;;;10.96;70.92
64616;BME280;51027;42.162;24.754;2023-03-21T00:54:11;99654.09;;;10.98;70.57
64616;BME280;51027;42.162;24.754;2023-03-21T00:56:37;99666.59;;;11.14;70.88
64616;BME280;51027;42.162;24.754;2023-03-21T00:59:03;99671.78;;;11.16;71.04
64616;BME280;51027;42.162;24.754;2023-03-21T01:01:28;99658.53;;;11.17;70.90
64616;BME280;51027;42.162;24.754;2023-03-21T01:04:00;99660.00;;;11.24;70.84
64616;BME280;51027;42.162;24.754;2023-03-21T01:06:34;99651.88;;;11.09;71.87
64616;BME280;51027;42.162;24.754;2023-03-21T01:09:04;99630.91;;;10.85;72.35
64616;BME280;51027;42.162;24.754;2023-03-21T01:11:30;99649.50;;;10.81;72.73
64616;BME280;51027;42.162;24.754;2023-03-21T01:13:55;99647.66;;;10.83;72.36
64616;BME280;51027;42.162;24.754;2023-03-21T01:16:21;99636.91;;;10.67;72.34
64616;BME280;51027;42.162;24.754;2023-03-21T01:18:46;99619.94;;;10.52;72.96
64616;BME280;51027;42.162;24.754;2023-03-21T01:21:13;99643.47;;;10.57;73.29
64616;BME280;51027;42.162;24.754;2023-03-21T01:23:40;99625.81;;;10.37;73.55
64616;BME280;51027;42.162;24.754;2023-03-21T01:26:07;99633.53;;;10.42;73.50
64616;BME280;51027;42.162;24.754;2023-03-21T01:28:34;99639.63;;;10.44;73.59
64616;BME280;51027;42.162;24.754;2023-03-21T01:31:01;99636.13;;;10.43;73.54
64616;BME280;51027;42.162;24.754;2023-03-21T01:33:27;99636.16;;;10.42;73.39
64616;BME280;51027;42.162;24.754;2023-03-21T01:35:53;99636.97;;;10.22;74.25
64616;BME280;51027;42.162;24.754;2023-03-21T01:38:19;99619.28;;;10.25;73.68
64616;BME280;51027;42.162;24.754;2023-03-21T01:40:46;99622.63;;;10.29;74.29
64616;BME280;51027;42.162;24.754;2023-03-21T01:43:32;99624.41;;;10.05;74.94
64616;BME280;51027;42.162;24.754;2023-03-21T01:48:56;99617.84;;;9.93;75.78
64616;BME280;51027;42.162;24.754;2023-03-21T01:51:23;99598.28;;;9.77;76.05
64616;BME280;51027;42.162;24.754;2023-03-21T01:53:51;99590.34;;;9.55;78.16
64616;BME280;51027;42.162;24.754;2023-03-21T01:56:27;99598.97;;;9.82;77.42
64616;BME280;51027;42.162;24.754;2023-03-21T01:58:59;99600.00;;;9.78;76.79
64616;BME280;51027;42.162;24.754;2023-03-21T02:01:28;99589.38;;;9.81;77.01
64616;BME280;51027;42.162;24.754;2023-03-21T02:03:54;99594.16;;;9.70;77.42
64616;BME280;51027;42.162;24.754;2023-03-21T02:06:27;99562.16;;;9.59;77.81
64616;BME280;51027;42.162;24.754;2023-03-21T02:08:58;99591.13;;;9.80;77.99
64616;BME280;51027;42.162;24.754;2023-03-21T02:11:26;99570.66;;;9.65;78.76
64616;BME280;51027;42.162;24.754;2023-03-21T02:13:54;99586.78;;;9.79;79.04
64616;BME280;51027;42.162;24.754;2023-03-21T02:16:57;99589.13;;;9.87;79.27
64616;BME280;51027;42.162;24.754;2023-03-21T02:28:14;99581.13;;;9.67;81.10
64616;BME280;51027;42.162;24.754;2023-03-21T02:36:32;99595.00;;;9.70;81.32
64616;BME280;51027;42.162;24.754;2023-03-21T02:39:09;99584.00;;;9.61;82.03
64616;BME280;51027;42.162;24.754;2023-03-21T02:42:08;99608.13;;;9.72;82.43
64616;BME280;51027;42.162;24.754;2023-03-21T02:47:28;99613.28;;;10.20;81.14
64616;BME280;51027;42.162;24.754;2023-03-21T02:52:35;99603.72;;;9.96;82.16
64616;BME280;51027;42.162;24.754;2023-03-21T02:55:04;99612.84;;;10.09;81.20
64616;BME280;51027;42.162;24.754;2023-03-21T02:57:32;99613.38;;;9.95;81.54
64616;BME280;51027;42.162;24.754;2023-03-21T02:59:58;99614.78;;;9.80;81.72
64616;BME280;51027;42.162;24.754;2023-03-21T03:02:26;99614.50;;;9.88;81.57
64616;BME280;51027;42.162;24.754;2023-03-21T03:04:52;99623.09;;;9.93;80.97
64616;BME280;51027;42.162;24.754;2023-03-21T03:07:39;99616.34;;;9.86;81.27
64616;BME280;51027;42.162;24.754;2023-03-21T03:15:42;99616.03;;;9.70;81.49
64616;BME280;51027;42.162;24.754;2023-03-21T03:24:04;99634.38;;;9.48;82.81
64616;BME280;51027;42.162;24.754;2023-03-21T03:26:55;99632.03;;;9.41;83.11
64616;BME280;51027;42.162;24.754;2023-03-21T03:29:22;99581.41;;;9.11;83.18
64616;BME280;51027;42.162;24.754;2023-03-21T03:31:55;99636.47;;;9.39;83.56
64616;BME280;51027;42.162;24.754;2023-03-21T03:34:27;99637.25;;;9.42;83.56
64616;BME280;51027;42.162;24.754;2023-03-21T03:36:55;99637.88;;;9.24;84.16
64616;BME280;51027;42.162;24.754;2023-03-21T03:39:26;99616.34;;;8.88;85.85
64616;BME280;51027;42.162;24.754;2023-03-21T03:41:58;99628.78;;;9.08;85.88
64616;BME280;51027;42.162;24.754;2023-03-21T03:44:24;99613.38;;;9.23;84.78
64616;BME280;51027;42.162;24.754;2023-03-21T03:47:08;99620.00;;;9.09;86.04
64616;BME280;51027;42.162;24.754;2023-03-21T03:49:48;99589.19;;;9.14;84.83
64616;BME280;51027;42.162;24.754;2023-03-21T03:52:22;99607.78;;;9.08;85.19
64616;BME280;51027;42.162;24.754;2023-03-21T03:54:51;99619.25;;;9.05;85.34
64616;BME280;51027;42.162;24.754;2023-03-21T03:57:17;99615.94;;;9.00;85.53
64616;BME280;51027;42.162;24.754;2023-03-21T03:59:44;99612.53;;;8.97;85.43
64616;BME280;51027;42.162;24.754;2023-03-21T04:02:11;99618.22;;;8.84;85.87
64616;BME280;51027;42.162;24.754;2023-03-21T04:04:37;99618.31;;;8.81;85.90
64616;BME280;51027;42.162;24.754;2023-03-21T04:07:03;99618.88;;;8.91;85.02
64616;BME280;51027;42.162;24.754;2023-03-21T04:09:31;99617.34;;;8.84;84.86
64616;BME280;51027;42.162;24.754;2023-03-21T04:11:57;99615.03;;;8.48;86.65
64616;BME280;51027;42.162;24.754;2023-03-21T04:14:23;99626.78;;;8.63;86.26
64616;BME280;51027;42.162;24.754;2023-03-21T04:16:48;99616.13;;;8.68;85.25
64616;BME280;51027;42.162;24.754;2023-03-21T04:19:15;99629.38;;;8.64;85.64
64616;BME280;51027;42.162;24.754;2023-03-21T04:21:41;99605.28;;;8.52;85.80
64616;BME280;51027;42.162;24.754;2023-03-21T04:24:07;99625.59;;;8.73;85.68
64616;BME280;51027;42.162;24.754;2023-03-21T04:26:33;99628.06;;;8.51;86.55
64616;BME280;51027;42.162;24.754;2023-03-21T04:29:00;99629.38;;;8.64;86.45
64616;BME280;51027;42.162;24.754;2023-03-21T04:31:28;99617.50;;;8.53;86.53
64616;BME280;51027;42.162;24.754;2023-03-21T04:33:58;99638.16;;;8.63;86.44
64616;BME280;51027;42.162;24.754;2023-03-21T04:36:24;99640.50;;;8.73;86.39
64616;BME280;51027;42.162;24.754;2023-03-21T04:38:59;99636.91;;;8.75;85.96
64616;BME280;51027;42.162;24.754;2023-03-21T04:41:27;99639.00;;;8.64;87.30
64616;BME280;51027;42.162;24.754;2023-03-21T04:43:53;99622.84;;;8.50;87.78
64616;BME280;51027;42.162;24.754;2023-03-21T04:46:19;99630.84;;;8.73;86.69
64616;BME280;51027;42.162;24.754;2023-03-21T04:48:44;99634.44;;;8.71;86.99
64616;BME280;51027;42.162;24.754;2023-03-21T04:51:11;99646.75;;;8.69;87.11
64616;BME280;51027;42.162;24.754;2023-03-21T04:53:37;99648.19;;;8.79;86.44
64616;BME280;51027;42.162;24.754;2023-03-21T04:56:04;99646.44;;;8.78;86.38
64616;BME280;51027;42.162;24.754;2023-03-21T04:58:30;99630.94;;;8.70;86.29
64616;BME280;51027;42.162;24.754;2023-03-21T05:00:56;99654.44;;;9.01;85.58
64616;BME280;51027;42.162;24.754;2023-03-21T05:03:22;99656.91;;;9.06;85.45
64616;BME280;51027;42.162;24.754;2023-03-21T05:05:48;99661.28;;;9.05;85.31
64616;BME280;51027;42.162;24.754;2023-03-21T05:08:14;99644.38;;;9.14;84.51
64616;BME280;51027;42.162;24.754;2023-03-21T05:10:40;99660.09;;;9.40;83.98
64616;BME280;51027;42.162;24.754;2023-03-21T05:13:05;99654.16;;;9.59;83.43
64616;BME280;51027;42.162;24.754;2023-03-21T05:15:31;99659.28;;;9.63;83.90
64616;BME280;51027;42.162;24.754;2023-03-21T05:17:56;99656.19;;;9.99;82.29
64616;BME280;51027;42.162;24.754;2023-03-21T05:20:37;99649.75;;;9.84;82.71
64616;BME280;51027;42.162;24.754;2023-03-21T05:23:07;99630.28;;;9.88;81.96
64616;BME280;51027;42.162;24.754;2023-03-21T05:25:35;99642.81;;;10.05;81.96
64616;BME280;51027;42.162;24.754;2023-03-21T05:28:03;99645.66;;;10.46;80.50
64616;BME280;51027;42.162;24.754;2023-03-21T05:30:28;99637.44;;;10.31;80.37
64616;BME280;51027;42.162;24.754;2023-03-21T05:32:54;99643.47;;;10.35;81.10
64616;BME280;51027;42.162;24.754;2023-03-21T05:35:19;99620.66;;;10.10;81.70
64616;BME280;51027;42.162;24.754;2023-03-21T05:37:45;99638.44;;;9.82;83.36
64616;BME280;51027;42.162;24.754;2023-03-21T05:40:10;99638.53;;;9.79;84.38
64616;BME280;51027;42.162;24.754;2023-03-21T05:42:36;99635.81;;;9.82;83.89
64616;BME280;51027;42.162;24.754;2023-03-21T05:45:02;99641.22;;;10.01;83.30
64616;BME280;51027;42.162;24.754;2023-03-21T05:47:28;99648.03;;;9.83;84.44
64616;BME280;51027;42.162;24.754;2023-03-21T05:49:54;99622.56;;;10.07;83.65
64616;BME280;51027;42.162;24.754;2023-03-21T05:52:19;99638.88;;;10.17;83.16
64616;BME280;51027;42.162;24.754;2023-03-21T05:54:45;99641.84;;;10.31;83.06
64616;BME280;51027;42.162;24.754;2023-03-21T05:57:10;99649.22;;;10.66;81.69
64616;BME280;51027;42.162;24.754;2023-03-21T05:59:36;99632.66;;;10.41;82.42
64616;BME280;51027;42.162;24.754;2023-03-21T06:02:02;99647.94;;;10.77;81.47
64616;BME280;51027;42.162;24.754;2023-03-21T06:04:27;99650.69;;;10.74;81.08
64616;BME280;51027;42.162;24.754;2023-03-21T06:06:53;99641.59;;;10.81;80.77
64616;BME280;51027;42.162;24.754;2023-03-21T06:09:20;99648.53;;;10.61;81.65
64616;BME280;51027;42.162;24.754;2023-03-21T06:11:48;99642.97;;;10.47;82.17
64616;BME280;51027;42.162;24.754;2023-03-21T06:14:15;99627.22;;;10.67;81.36
64616;BME280;51027;42.162;24.754;2023-03-21T06:16:41;99655.88;;;10.97;80.31
64616;BME280;51027;42.162;24.754;2023-03-21T06:19:07;99647.06;;;11.18;79.81
64616;BME280;51027;42.162;24.754;2023-03-21T06:21:32;99654.31;;;11.34;79.34
64616;BME280;51027;42.162;24.754;2023-03-21T06:23:58;99642.50;;;11.42;79.01
64616;BME280;51027;42.162;24.754;2023-03-21T06:26:23;99651.78;;;11.71;78.16
64616;BME280;51027;42.162;24.754;2023-03-21T06:28:49;99645.44;;;11.57;78.84
64616;BME280;51027;42.162;24.754;2023-03-21T06:31:15;99638.69;;;11.49;79.02
64616;BME280;51027;42.162;24.754;2023-03-21T06:33:40;99645.72;;;11.69;78.35
64616;BME280;51027;42.162;24.754;2023-03-21T06:36:07;99658.78;;;11.52;78.62
64616;BME280;51027;42.162;24.754;2023-03-21T06:38:32;99653.00;;;11.23;80.63
64616;BME280;51027;42.162;24.754;2023-03-21T06:41:02;99658.06;;;11.69;79.15
64616;BME280;51027;42.162;24.754;2023-03-21T06:43:29;99659.19;;;11.43;80.14
64616;BME280;51027;42.162;24.754;2023-03-21T06:45:55;99609.84;;;11.26;80.04
64616;BME280;51027;42.162;24.754;2023-03-21T06:48:21;99661.03;;;11.81;78.82
64616;BME280;51027;42.162;24.754;2023-03-21T06:50:48;99653.06;;;12.02;78.18
64616;BME280;51027;42.162;24.754;2023-03-21T06:53:13;99648.16;;;12.13;77.52
64616;BME280;51027;42.162;24.754;2023-03-21T06:55:39;99643.81;;;12.12;77.62
64616;BME280;51027;42.162;24.754;2023-03-21T06:58:04;99646.09;;;12.01;77.70
64616;BME280;51027;42.162;24.754;2023-03-21T07:00:30;99658.28;;;12.22;77.00
64616;BME280;51027;42.162;24.754;2023-03-21T07:02:56;99655.06;;;12.34;76.74
64616;BME280;51027;42.162;24.754;2023-03-21T07:05:22;99664.00;;;12.32;76.42
64616;BME280;51027;42.162;24.754;2023-03-21T07:07:47;99663.38;;;12.08;77.84
64616;BME280;51027;42.162;24.754;2023-03-21T07:10:13;99658.97;;;12.27;77.21
64616;BME280;51027;42.162;24.754;2023-03-21T07:12:38;99630.19;;;12.40;75.69
64616;BME280;51027;42.162;24.754;2023-03-21T07:15:05;99656.41;;;12.62;75.19
64616;BME280;51027;42.162;24.754;2023-03-21T07:17:31;99648.66;;;12.76;74.46
64616;BME280;51027;42.162;24.754;2023-03-21T07:19:57;99663.16;;;12.86;74.65
64616;BME280;51027;42.162;24.754;2023-03-21T07:22:22;99665.66;;;12.89;74.29
64616;BME280;51027;42.162;24.754;2023-03-21T07:24:48;99662.72;;;13.13;73.48
64616;BME280;51027;42.162;24.754;2023-03-21T07:27:14;99648.13;;;13.40;72.11
64616;BME280;51027;42.162;24.754;2023-03-21T07:29:39;99661.50;;;13.37;72.23
64616;BME280;51027;42.162;24.754;2023-03-21T07:32:06;99656.00;;;14.08;69.98
64616;BME280;51027;42.162;24.754;2023-03-21T07:34:31;99652.19;;;14.13;69.54
64616;BME280;51027;42.162;24.754;2023-03-21T07:36:58;99653.34;;;13.92;69.70
64616;BME280;51027;42.162;24.754;2023-03-21T07:39:25;99651.06;;;14.02;69.58
64616;BME280;51027;42.162;24.754;2023-03-21T07:41:50;99653.00;;;13.98;69.79
64616;BME280;51027;42.162;24.754;2023-03-21T07:44:16;99650.97;;;14.19;68.77
64616;BME280;51027;42.162;24.754;2023-03-21T07:46:41;99646.97;;;14.28;68.60
64616;BME280;51027;42.162;24.754;2023-03-21T07:49:06;99641.78;;;14.58;67.29
64616;BME280;51027;42.162;24.754;2023-03-21T07:51:33;99652.44;;;14.88;66.65
64616;BME280;51027;42.162;24.754;2023-03-21T07:54:00;99645.66;;;14.98;66.17
64616;BME280;51027;42.162;24.754;2023-03-21T07:56:26;99622.19;;;14.92;65.40
64616;BME280;51027;42.162;24.754;2023-03-21T07:58:52;99626.00;;;15.46;63.93
64616;BME280;51027;42.162;24.754;2023-03-21T08:01:18;99633.13;;;15.46;63.79
64616;BME280;51027;42.162;24.754;2023-03-21T08:03:43;99631.00;;;15.22;64.75
64616;BME280;51027;42.162;24.754;2023-03-21T08:06:09;99622.53;;;15.30;64.53
64616;BME280;51027;42.162;24.754;2023-03-21T08:08:34;99627.84;;;15.60;63.66
64616;BME280;51027;42.162;24.754;2023-03-21T08:11:00;99620.38;;;15.37;63.09
64616;BME280;51027;42.162;24.754;2023-03-21T08:13:26;99624.69;;;15.53;62.12
64616;BME280;51027;42.162;24.754;2023-03-21T08:15:51;99623.13;;;15.65;62.11
64616;BME280;51027;42.162;24.754;2023-03-21T08:18:17;99612.13;;;15.27;62.31
64616;BME280;51027;42.162;24.754;2023-03-21T08:20:42;99628.50;;;15.19;62.13
64616;BME280;51027;42.162;24.754;2023-03-21T08:23:08;99630.06;;;15.38;61.72
64616;BME280;51027;42.162;24.754;2023-03-21T08:25:33;99630.13;;;15.66;61.20
64616;BME280;51027;42.162;24.754;2023-03-21T08:27:59;99632.81;;;15.50;62.13
64616;BME280;51027;42.162;24.754;2023-03-21T08:30:27;99608.47;;;15.44;61.52
64616;BME280;51027;42.162;24.754;2023-03-21T08:32:57;99631.38;;;15.89;60.58
64616;BME280;51027;42.162;24.754;2023-03-21T08:35:23;99612.00;;;16.01;60.27
64616;BME280;51027;42.162;24.754;2023-03-21T08:37:49;99599.31;;;15.78;60.41
64616;BME280;51027;42.162;24.754;2023-03-21T08:40:16;99617.78;;;15.94;59.76
64616;BME280;51027;42.162;24.754;2023-03-21T08:42:42;99617.53;;;15.84;60.04
64616;BME280;51027;42.162;24.754;2023-03-21T08:45:09;99626.34;;;15.70;60.39
64616;BME280;51027;42.162;24.754;2023-03-21T08:47:35;99612.78;;;15.75;59.93
64616;BME280;51027;42.162;24.754;2023-03-21T08:50:01;99597.00;;;15.43;60.52
64616;BME280;51027;42.162;24.754;2023-03-21T08:52:26;99625.56;;;15.82;60.28
64616;BME280;51027;42.162;24.754;2023-03-21T08:54:53;99621.31;;;15.80;60.45
64616;BME280;51027;42.162;24.754;2023-03-21T08:57:19;99588.38;;;15.10;61.55
64616;BME280;51027;42.162;24.754;2023-03-21T08:59:44;99615.63;;;15.27;61.79
64616;BME280;51027;42.162;24.754;2023-03-21T09:02:13;99625.91;;;15.48;61.58
64616;BME280;51027;42.162;24.754;2023-03-21T09:04:39;99615.69;;;15.56;60.70
64616;BME280;51027;42.162;24.754;2023-03-21T09:07:04;99620.50;;;15.35;61.53
64616;BME280;51027;42.162;24.754;2023-03-21T09:09:30;99616.94;;;15.79;60.67
64616;BME280;51027;42.162;24.754;2023-03-21T09:11:56;99596.25;;;15.98;59.32
64616;BME280;51027;42.162;24.754;2023-03-21T09:14:21;99609.03;;;16.20;58.99
64616;BME280;51027;42.162;24.754;2023-03-21T09:16:47;99587.09;;;16.31;58.23
64616;BME280;51027;42.162;24.754;2023-03-21T09:19:12;99610.81;;;16.75;57.59
64616;BME280;51027;42.162;24.754;2023-03-21T09:21:38;99606.41;;;16.88;57.34
64616;BME280;51027;42.162;24.754;2023-03-21T09:24:06;99602.97;;;16.04;58.62
64616;BME280;51027;42.162;24.754;2023-03-21T09:26:31;99603.81;;;16.60;57.66
64616;BME280;51027;42.162;24.754;2023-03-21T09:28:57;99598.44;;;16.47;58.00
64616;BME280;51027;42.162;24.754;2023-03-21T09:31:25;99591.53;;;16.72;56.94
64616;BME280;51027;42.162;24.754;2023-03-21T09:33:52;99600.38;;;16.45;57.32
64616;BME280;51027;42.162;24.754;2023-03-21T09:36:18;99586.63;;;16.24;58.06
64616;BME280;51027;42.162;24.754;2023-03-21T09:38:47;99598.81;;;16.55;56.86
64616;BME280;51027;42.162;24.754;2023-03-21T09:47:12;99589.88;;;17.61;54.49
64616;BME280;51027;42.162;24.754;2023-03-21T09:49:49;99586.38;;;17.99;53.11
64616;BME280;51027;42.162;24.754;2023-03-21T09:52:21;99583.50;;;18.26;52.62
64616;BME280;51027;42.162;24.754;2023-03-21T09:54:49;99575.00;;;18.21;52.56
64616;BME280;51027;42.162;24.754;2023-03-21T09:59:50;99570.97;;;18.15;52.71
64616;BME280;51027;42.162;24.754;2023-03-21T10:04:58;99575.13;;;18.43;51.62
64616;BME280;51027;42.162;24.754;2023-03-21T10:07:25;99569.50;;;18.35;51.86
64616;BME280;51027;42.162;24.754;2023-03-21T10:09:53;99571.53;;;17.95;53.23
64616;BME280;51027;42.162;24.754;2023-03-21T10:12:22;99557.28;;;17.58;53.57
64616;BME280;51027;42.162;24.754;2023-03-21T10:14:53;99570.72;;;18.31;52.02
64616;BME280;51027;42.162;24.754;2023-03-21T10:17:32;99569.75;;;17.44;53.81
64616;BME280;51027;42.162;24.754;2023-03-21T10:20:12;99567.38;;;18.03;53.12
64616;BME280;51027;42.162;24.754;2023-03-21T10:22:39;99545.63;;;18.09;52.17
64616;BME280;51027;42.162;24.754;2023-03-21T10:25:06;99545.28;;;18.14;51.80
64616;BME280;51027;42.162;24.754;2023-03-21T10:27:33;99563.00;;;18.63;51.41
64616;BME280;51027;42.162;24.754;2023-03-21T10:30:02;99552.84;;;18.92;49.86
64616;BME280;51027;42.162;24.754;2023-03-21T10:32:32;99552.47;;;18.96;50.41
64616;BME280;51027;42.162;24.754;2023-03-21T10:34:59;99544.16;;;19.12;49.64
64616;BME280;51027;42.162;24.754;2023-03-21T10:37:25;99538.25;;;18.61;50.78
64616;BME280;51027;42.162;24.754;2023-03-21T10:39:53;99538.47;;;18.10;51.66
64616;BME280;51027;42.162;24.754;2023-03-21T10:42:24;99527.69;;;18.11;51.63
64616;BME280;51027;42.162;24.754;2023-03-21T10:44:52;99537.63;;;18.09;52.15
64616;BME280;51027;42.162;24.754;2023-03-21T10:47:24;99541.25;;;18.08;52.05
64616;BME280;51027;42.162;24.754;2023-03-21T10:49:50;99524.63;;;18.53;51.28
64616;BME280;51027;42.162;24.754;2023-03-21T10:52:18;99514.47;;;18.34;51.58
64616;BME280;51027;42.162;24.754;2023-03-21T10:54:44;99511.19;;;18.54;50.63
64616;BME280;51027;42.162;24.754;2023-03-21T10:57:12;99503.91;;;18.56;50.40
64616;BME280;51027;42.162;24.754;2023-03-21T11:02:17;99500.69;;;19.10;48.71
64616;BME280;51027;42.162;24.754;2023-03-21T11:04:44;99502.09;;;18.81;49.16
64616;BME280;51027;42.162;24.754;2023-03-21T11:07:13;99500.09;;;18.48;49.29
64616;BME280;51027;42.162;24.754;2023-03-21T11:09:48;99478.72;;;18.95;47.64
64616;BME280;51027;42.162;24.754;2023-03-21T11:12:27;99493.97;;;18.58;48.71
64616;BME280;51027;42.162;24.754;2023-03-21T11:14:53;99479.78;;;18.82;48.21
64616;BME280;51027;42.162;24.754;2023-03-21T11:17:19;99462.59;;;19.08;47.75
64616;BME280;51027;42.162;24.754;2023-03-21T11:20:00;99466.50;;;19.26;46.83
64616;BME280;51027;42.162;24.754;2023-03-21T11:22:36;99448.78;;;19.37;47.44
64616;BME280;51027;42.162;24.754;2023-03-21T11:25:08;99446.09;;;19.70;47.14
64616;BME280;51027;42.162;24.754;2023-03-21T11:27:47;99456.22;;;19.55;47.08
64616;BME280;51027;42.162;24.754;2023-03-21T11:30:20;99454.38;;;19.34;48.18
64616;BME280;51027;42.162;24.754;2023-03-21T11:32:50;99425.59;;;18.92;48.88
64616;BME280;51027;42.162;24.754;2023-03-21T11:35:22;99450.72;;;19.01;49.01
64616;BME280;51027;42.162;24.754;2023-03-21T11:37:53;99453.13;;;19.15;49.45
64616;BME280;51027;42.162;24.754;2023-03-21T11:40:27;99447.78;;;19.04;49.65
64616;BME280;51027;42.162;24.754;2023-03-21T11:42:55;99443.41;;;18.92;49.76
64616;BME280;51027;42.162;24.754;2023-03-21T11:47:48;99433.16;;;17.80;52.68
64616;BME280;51027;42.162;24.754;2023-03-21T11:50:19;99430.66;;;18.49;51.56
64616;BME280;51027;42.162;24.754;2023-03-21T11:53:10;99421.69;;;18.85;50.89
64616;BME280;51027;42.162;24.754;2023-03-21T12:04:45;99406.38;;;18.76;51.18
64616;BME280;51027;42.162;24.754;2023-03-21T12:09:44;99413.28;;;18.67;51.45
64616;BME280;51027;42.162;24.754;2023-03-21T12:23:04;99390.16;;;18.44;53.40
64616;BME280;51027;42.162;24.754;2023-03-21T12:25:47;99397.03;;;18.00;54.31
64616;BME280;51027;42.162;24.754;2023-03-21T12:33:47;99380.66;;;18.29;53.98
64616;BME280;51027;42.162;24.754;2023-03-21T12:38:53;99364.38;;;18.09;54.59
64616;BME280;51027;42.162;24.754;2023-03-21T12:41:27;99360.94;;;18.07;53.97
64616;BME280;51027;42.162;24.754;2023-03-21T12:44:14;99356.91;;;17.91;54.35
64616;BME280;51027;42.162;24.754;2023-03-21T12:46:47;99364.00;;;18.14;54.16
64616;BME280;51027;42.162;24.754;2023-03-21T12:52:16;99353.34;;;18.14;54.69
64616;BME280;51027;42.162;24.754;2023-03-21T12:57:41;99355.47;;;17.98;55.30
64616;BME280;51027;42.162;24.754;2023-03-21T13:00:22;99361.16;;;17.93;55.93
64616;BME280;51027;42.162;24.754;2023-03-21T13:05:43;99358.19;;;17.85;56.32
64616;BME280;51027;42.162;24.754;2023-03-21T13:10:56;99350.25;;;17.48;57.65
64616;BME280;51027;42.162;24.754;2023-03-21T13:16:23;99343.19;;;17.84;57.18
64616;BME280;51027;42.162;24.754;2023-03-21T13:30:06;99316.38;;;17.14;60.11
64616;BME280;51027;42.162;24.754;2023-03-21T13:32:43;99336.94;;;17.12;60.55
64616;BME280;51027;42.162;24.754;2023-03-21T13:37:47;99316.25;;;17.28;60.57
64616;BME280;51027;42.162;24.754;2023-03-21T13:40:25;99313.66;;;17.26;60.72
64616;BME280;51027;42.162;24.754;2023-03-21T13:43:01;99319.22;;;17.23;60.30
64616;BME280;51027;42.162;24.754;2023-03-21T13:45:44;99310.75;;;17.06;60.39
64616;BME280;51027;42.162;24.754;2023-03-21T13:48:30;99308.19;;;17.04;60.47
64616;BME280;51027;42.162;24.754;2023-03-21T13:51:03;99296.41;;;16.95;60.90
64616;BME280;51027;42.162;24.754;2023-03-21T13:56:18;99276.28;;;17.04;60.21
64616;BME280;51027;42.162;24.754;2023-03-21T14:04:03;99300.22;;;17.04;60.61
64616;BME280;51027;42.162;24.754;2023-03-21T14:09:03;99283.59;;;17.13;60.18
64616;BME280;51027;42.162;24.754;2023-03-21T14:11:31;99286.22;;;16.89;60.61
64616;BME280;51027;42.162;24.754;2023-03-21T14:13:59;99279.97;;;16.78;60.98
64616;BME280;51027;42.162;24.754;2023-03-21T14:16:25;99281.44;;;16.82;61.46
64616;BME280;51027;42.162;24.754;2023-03-21T14:18:59;99273.34;;;16.83;60.89
64616;BME280;51027;42.162;24.754;2023-03-21T14:21:28;99297.16;;;16.85;60.92
64616;BME280;51027;42.162;24.754;2023-03-21T14:24:05;99281.13;;;16.86;60.71
64616;BME280;51027;42.162;24.754;2023-03-21T14:26:37;99292.63;;;16.87;60.55
64616;BME280;51027;42.162;24.754;2023-03-21T14:29:06;99274.97;;;16.86;60.42
64616;BME280;51027;42.162;24.754;2023-03-21T14:31:32;99296.28;;;17.10;60.33
64616;BME280;51027;42.162;24.754;2023-03-21T14:34:01;99277.66;;;17.10;59.91
64616;BME280;51027;42.162;24.754;2023-03-21T14:36:30;99283.63;;;17.01;60.21
64616;BME280;51027;42.162;24.754;2023-03-21T14:41:25;99273.88;;;16.88;61.36
64616;BME280;51027;42.162;24.754;2023-03-21T14:44:22;99284.94;;;16.82;61.95
64616;BME280;51027;42.162;24.754;2023-03-21T14:49:29;99278.69;;;16.58;62.72
64616;BME280;51027;42.162;24.754;2023-03-21T14:51:58;99275.19;;;16.57;62.88
64616;BME280;51027;42.162;24.754;2023-03-21T14:54:25;99265.72;;;16.40;63.60
64616;BME280;51027;42.162;24.754;2023-03-21T14:56:56;99269.22;;;16.54;63.59
64616;BME280;51027;42.162;24.754;2023-03-21T14:59:26;99265.19;;;16.48;63.96
64616;BME280;51027;42.162;24.754;2023-03-21T15:01:56;99245.63;;;16.24;64.38
64616;BME280;51027;42.162;24.754;2023-03-21T15:04:24;99262.84;;;16.31;65.06